Ana Sayfa
METAR-TAF:

METAR-TAF

Havaalanları :

Guaymas, Meksika

Enlem: 27-58N, Boylam: 110-56W, yükseklik: 27 m

Güncel hava durumu gözlemi

Rapor saat 00:41 UTC de 55 dakika önce yapıldı.
Sakin rüzgar
Sıcaklık 25°C
Nem 36%
Basınç 1014 hPa
Görüş mesafesi: 16.1 km
15000 ft yükseklikte çok bulutlu

METAR: MMGM 070041Z 00000KT 10SM OVC150 25/09 A2993 RMK 8/02/ HZY

Saat: 18:36 (01:36 UTC)

Tahmin

Rapor saat 17:12 UTC de 8 saat ve 24 dakika önce yapıldı.
Ayın 06'si saat 18 UTC'den ayın 07'si saat 18 UTC'ye kadar geçerli Tahmin
Rüzgar güneydan 10 kt
Görüş mesafesi: 10 km
12000 ft yükseklikte parçalı çok bulutlu
26000 ft yükseklikte parçalı çok bulutlu
Ayın 07'si saat 1200 UTC'den
Rüzgar batı/güneybatıdan 5 kt
Görüş mesafesi: 10 km
9000 ft yükseklikte parçalı çok bulutlu

TAF: MMGM 061712Z 0618/0718 18010KT P6SM BKN120 BKN260 FM071200 25005KT P6SM BKN090

4.000'den fazla havaalanı için hava durumu gözlemleri ve tahminleri (METAR ve TAF raporları).

Kullanılabilir istasyonlar harita üzerinde sarı ve kırmızı noktalarla gösterilir.

İstasyonun adını görmek için fareyi noktanın üzerinde gezdirin.

Sonrasında hava gözlem ve tahminlerini görmek için tıklayın.

Haritayı değiştirmek için: yaklaştırmak için siyah artı işaretli yeşil düğmeye ve uzaklaştırmak için de eksi işaretli düğmeye hızla tıklayın; bitişik haritalar için yeşil okları kullanın.


METAR-TAF: